Time;durP1;ratioP1;P1;durP2;ratioP2;P2;SDS_P1;SDS_P2;PMS_P1;PMS_P2;Temp;Humidity;BMP_temperature;BMP_pressure;BME280_temperature;BME280_humidity;BME280_pressure;Samples;Min_cycle;Max_cycle;Signal;HPM_P1;HPM_P2
2022/05/11 00:00:43;;;;;;;8.07;7.33;;;;;;;;;;5067806;28;20193;-34
2022/05/11 00:03:10;;;;;;;8.73;7.27;;;;;;;;;;5070960;28;20815;-34
2022/05/11 00:05:39;;;;;;;8.00;6.80;;;;;;;;;;5064733;28;20225;-35
2022/05/11 00:08:07;;;;;;;7.30;6.60;;;;;;;;;;5069924;28;20209;-39
2022/05/11 00:10:35;;;;;;;7.30;6.70;;;;;;;;;;5070760;28;20290;-34
2022/05/11 00:13:02;;;;;;;8.97;7.03;;;;;;;;;;5060594;28;20198;-32
2022/05/11 00:15:29;;;;;;;7.20;6.60;;;;;;;;;;5066140;28;20222;-33
2022/05/11 00:17:57;;;;;;;8.00;7.20;;;;;;;;;;5070610;28;20217;-37
2022/05/11 00:20:24;;;;;;;8.77;6.73;;;;;;;;;;5064878;28;20292;-35
2022/05/11 00:22:55;;;;;;;7.50;6.70;;;;;;;;;;5058262;28;20221;-31
2022/05/11 00:25:24;;;;;;;6.77;6.13;;;;;;;;;;5070779;28;20229;-36
2022/05/11 00:27:52;;;;;;;7.17;6.53;;;;;;;;;;5066704;28;20207;-31
2022/05/11 00:30:19;;;;;;;7.93;7.13;;;;;;;;;;5069993;28;20201;-35
2022/05/11 00:32:46;;;;;;;7.10;6.23;;;;;;;;;;5070604;28;20219;-32
2022/05/11 00:35:13;;;;;;;9.30;7.33;;;;;;;;;;5063575;28;20204;-31
2022/05/11 00:37:40;;;;;;;7.40;6.70;;;;;;;;;;5068484;28;20232;-34
2022/05/11 00:40:10;;;;;;;7.87;7.17;;;;;;;;;;5070058;28;20214;-35
2022/05/11 00:42:37;;;;;;;7.67;6.90;;;;;;;;;;5064267;28;20206;-32
2022/05/11 00:45:05;;;;;;;6.93;6.10;;;;;;;;;;5069528;28;20205;-31
2022/05/11 00:47:34;;;;;;;8.30;6.37;;;;;;;;;;5071279;28;20201;-33
2022/05/11 00:50:04;;;;;;;7.37;6.67;;;;;;;;;;5066852;28;20212;-36
2022/05/11 00:52:35;;;;;;;7.80;7.00;;;;;;;;;;5062332;28;20689;-33
2022/05/11 00:55:05;;;;;;;8.60;6.30;;;;;;;;;;5063411;28;20200;-38
2022/05/11 00:57:35;;;;;;;7.97;7.27;;;;;;;;;;5063464;28;20280;-39
2022/05/11 01:00:02;;;;;;;7.13;6.53;;;;;;;;;;5065097;28;20202;-36
2022/05/11 01:02:29;;;;;;;7.00;6.30;;;;;;;;;;5060238;28;20201;-36
2022/05/11 01:05:02;;;;;;;10.30;7.47;;;;;;;;;;5060883;28;20202;-37
2022/05/11 01:07:30;;;;;;;9.73;6.33;;;;;;;;;;5069341;28;20194;-32
2022/05/11 01:09:57;;;;;;;9.37;7.47;;;;;;;;;;5063808;28;20197;-31
2022/05/11 01:12:27;;;;;;;8.27;6.83;;;;;;;;;;5060170;28;20193;-34
2022/05/11 01:15:00;;;;;;;7.47;6.73;;;;;;;;;;5068916;28;20201;-36
2022/05/11 01:17:27;;;;;;;8.80;7.30;;;;;;;;;;5073720;28;20312;-33
2022/05/11 01:19:55;;;;;;;8.33;7.53;;;;;;;;;;5069716;28;20204;-37
2022/05/11 01:22:28;;;;;;;8.47;6.60;;;;;;;;;;5073486;28;20274;-32
2022/05/11 01:24:57;;;;;;;7.60;6.83;;;;;;;;;;5073339;28;20208;-34
2022/05/11 01:27:30;;;;;;;7.57;6.77;;;;;;;;;;5065053;28;20223;-33
2022/05/11 01:29:58;;;;;;;8.30;7.50;;;;;;;;;;5065257;28;20198;-37
2022/05/11 01:32:26;;;;;;;7.73;6.93;;;;;;;;;;5073199;28;20200;-33
2022/05/11 01:34:55;;;;;;;7.83;7.13;;;;;;;;;;5068908;28;20497;-35
2022/05/11 01:37:22;;;;;;;7.20;6.50;;;;;;;;;;5061958;28;20218;-31
2022/05/11 01:39:50;;;;;;;8.07;6.90;;;;;;;;;;5072042;28;20209;-35
2022/05/11 01:42:20;;;;;;;8.23;7.43;;;;;;;;;;5069502;28;20205;-33
2022/05/11 01:44:47;;;;;;;7.97;7.23;;;;;;;;;;5075099;28;20247;-30
2022/05/11 01:47:15;;;;;;;8.40;6.93;;;;;;;;;;5075721;28;20220;-37
2022/05/11 01:49:42;;;;;;;8.00;7.20;;;;;;;;;;5072624;28;20198;-32
2022/05/11 01:52:09;;;;;;;8.10;7.30;;;;;;;;;;5074233;28;20206;-35
2022/05/11 01:54:36;;;;;;;8.03;7.23;;;;;;;;;;5073482;28;20205;-33
2022/05/11 01:57:03;;;;;;;8.00;7.20;;;;;;;;;;5067195;28;20689;-34
2022/05/11 01:59:32;;;;;;;8.23;7.43;;;;;;;;;;5065388;28;20217;-32
2022/05/11 02:01:59;;;;;;;7.23;6.53;;;;;;;;;;5065318;28;20193;-35
2022/05/11 02:10:04;;;;;;;7.97;7.27;;;;;;;;;;5065422;28;20201;-33
2022/05/11 02:12:31;;;;;;;7.23;6.40;;;;;;;;;;5061265;28;20224;-30
2022/05/11 02:15:00;;;;;;;7.63;6.93;;;;;;;;;;5072232;28;20208;-31
2022/05/11 02:17:27;;;;;;;7.30;6.60;;;;;;;;;;5073542;28;20197;-33
2022/05/11 02:19:54;;;;;;;6.70;6.10;;;;;;;;;;5070065;28;20205;-32
2022/05/11 02:22:21;;;;;;;7.13;6.37;;;;;;;;;;5067827;28;20300;-38
2022/05/11 02:24:48;;;;;;;8.90;7.03;;;;;;;;;;5071700;28;20208;-36
2022/05/11 02:27:15;;;;;;;8.30;7.10;;;;;;;;;;5065657;28;20228;-36
2022/05/11 02:29:43;;;;;;;7.33;6.53;;;;;;;;;;5066105;28;20207;-41
2022/05/11 02:32:11;;;;;;;7.80;6.80;;;;;;;;;;5072748;28;20204;-33
2022/05/11 02:37:23;;;;;;;9.27;8.00;;;;;;;;;;5065633;28;20229;-36
2022/05/11 02:39:50;;;;;;;9.30;7.83;;;;;;;;;;5071328;28;20217;-32
2022/05/11 02:42:18;;;;;;;7.70;6.40;;;;;;;;;;5063573;28;20200;-32
2022/05/11 02:44:46;;;;;;;7.70;7.00;;;;;;;;;;5069784;28;20212;-30
2022/05/11 02:47:14;;;;;;;9.53;7.30;;;;;;;;;;5072763;28;20224;-33
2022/05/11 02:49:41;;;;;;;6.93;6.27;;;;;;;;;;5072742;28;20197;-34
2022/05/11 02:52:09;;;;;;;7.57;6.87;;;;;;;;;;5062954;28;20201;-39
2022/05/11 02:54:36;;;;;;;7.60;6.73;;;;;;;;;;5063313;28;20206;-34
2022/05/11 02:57:03;;;;;;;8.07;7.27;;;;;;;;;;5067442;28;20232;-35
2022/05/11 02:59:30;;;;;;;8.87;7.93;;;;;;;;;;5065766;28;20232;-31
2022/05/11 03:01:58;;;;;;;7.83;7.03;;;;;;;;;;5064051;28;20237;-34
2022/05/11 03:04:26;;;;;;;7.97;7.17;;;;;;;;;;5072126;28;20209;-34
2022/05/11 03:06:54;;;;;;;6.90;6.23;;;;;;;;;;5062064;28;20220;-35
2022/05/11 03:09:21;;;;;;;8.30;7.50;;;;;;;;;;5068273;28;20201;-33
2022/05/11 03:11:48;;;;;;;8.70;7.80;;;;;;;;;;5065433;28;20213;-36
2022/05/11 03:14:15;;;;;;;7.93;7.13;;;;;;;;;;5071052;28;20224;-37
2022/05/11 03:16:43;;;;;;;7.07;6.37;;;;;;;;;;5071813;28;20480;-37
2022/05/11 03:19:10;;;;;;;6.70;6.10;;;;;;;;;;5072578;28;20225;-34
2022/05/11 03:21:39;;;;;;;7.03;6.43;;;;;;;;;;5062036;28;20201;-34
2022/05/11 03:24:06;;;;;;;9.47;7.30;;;;;;;;;;5064705;28;20192;-34
2022/05/11 03:26:34;;;;;;;7.10;6.40;;;;;;;;;;5068625;28;20225;-37
2022/05/11 03:29:02;;;;;;;7.83;6.97;;;;;;;;;;5067327;28;20288;-33
2022/05/11 03:31:29;;;;;;;7.47;6.67;;;;;;;;;;5072543;28;20259;-36
2022/05/11 03:36:42;;;;;;;8.73;6.77;;;;;;;;;;5058609;28;20240;-36
2022/05/11 03:39:10;;;;;;;6.83;6.23;;;;;;;;;;5070201;28;20228;-33
2022/05/11 03:41:37;;;;;;;8.23;7.40;;;;;;;;;;5067943;28;20288;-36
2022/05/11 03:44:04;;;;;;;8.33;7.00;;;;;;;;;;5063061;28;20201;-34
2022/05/11 03:46:31;;;;;;;6.73;6.13;;;;;;;;;;5071541;28;20577;-40
2022/05/11 03:48:58;;;;;;;6.53;6.00;;;;;;;;;;5071667;28;20201;-35
2022/05/11 03:51:26;;;;;;;6.33;5.73;;;;;;;;;;5062844;28;20209;-35
2022/05/11 03:53:54;;;;;;;7.23;6.20;;;;;;;;;;5072022;28;20205;-32
2022/05/11 03:56:21;;;;;;;7.37;6.77;;;;;;;;;;5068610;28;20261;-36
2022/05/11 03:58:48;;;;;;;7.40;6.70;;;;;;;;;;5068403;28;20218;-35
2022/05/11 04:01:15;;;;;;;7.37;6.60;;;;;;;;;;5073248;28;20201;-36
2022/05/11 04:03:43;;;;;;;7.00;6.37;;;;;;;;;;5073086;28;20201;-34
2022/05/11 04:06:10;;;;;;;6.83;6.23;;;;;;;;;;5060950;28;20221;-35
2022/05/11 04:08:37;;;;;;;7.50;6.80;;;;;;;;;;5072575;28;20208;-34
2022/05/11 04:11:06;;;;;;;7.70;6.90;;;;;;;;;;5071187;28;20205;-32
2022/05/11 04:13:33;;;;;;;7.87;7.10;;;;;;;;;;5067552;28;20206;-29
2022/05/11 04:16:00;;;;;;;7.50;6.07;;;;;;;;;;5072882;28;20209;-35
2022/05/11 04:18:27;;;;;;;7.17;6.47;;;;;;;;;;5072878;28;20220;-32
2022/05/11 04:20:54;;;;;;;6.27;5.70;;;;;;;;;;5067536;28;20197;-34
2022/05/11 04:23:21;;;;;;;6.00;5.40;;;;;;;;;;5066986;28;20199;-34
2022/05/11 04:25:48;;;;;;;6.07;5.47;;;;;;;;;;5072671;28;20307;-28
2022/05/11 04:28:18;;;;;;;6.30;5.70;;;;;;;;;;5059539;28;20201;-36
2022/05/11 04:30:45;;;;;;;6.87;5.73;;;;;;;;;;5071214;28;20229;-30
2022/05/11 04:33:12;;;;;;;7.60;6.90;;;;;;;;;;5073074;28;20201;-35
2022/05/11 04:35:41;;;;;;;7.20;6.50;;;;;;;;;;5064554;28;20232;-28
2022/05/11 04:38:08;;;;;;;7.60;6.50;;;;;;;;;;5064946;28;20201;-34
2022/05/11 04:40:35;;;;;;;6.73;6.13;;;;;;;;;;5070482;28;20204;-34
2022/05/11 04:43:07;;;;;;;6.33;5.83;;;;;;;;;;5067601;28;20204;-33
2022/05/11 04:45:35;;;;;;;6.47;5.87;;;;;;;;;;5057557;28;20221;-32
2022/05/11 04:48:02;;;;;;;8.57;6.40;;;;;;;;;;5071930;28;20213;-32
2022/05/11 04:50:29;;;;;;;6.83;6.07;;;;;;;;;;5076295;28;20198;-34
2022/05/11 04:52:56;;;;;;;7.53;6.77;;;;;;;;;;5076985;28;20197;-29
2022/05/11 04:55:24;;;;;;;7.53;6.77;;;;;;;;;;5072307;28;20224;-32
2022/05/11 04:57:51;;;;;;;7.33;6.23;;;;;;;;;;5069243;28;20208;-33
2022/05/11 05:00:18;;;;;;;7.47;6.77;;;;;;;;;;5075333;28;20242;-28
2022/05/11 05:02:47;;;;;;;8.60;7.13;;;;;;;;;;5076844;28;20223;-33
2022/05/11 05:05:14;;;;;;;8.23;7.27;;;;;;;;;;5074319;28;20201;-32
2022/05/11 05:07:41;;;;;;;9.90;6.47;;;;;;;;;;5074660;28;20201;-29
2022/05/11 05:10:09;;;;;;;6.37;5.77;;;;;;;;;;5076495;28;20189;-30
2022/05/11 05:12:37;;;;;;;6.97;6.37;;;;;;;;;;5067238;28;20214;-35
2022/05/11 05:15:08;;;;;;;8.27;7.03;;;;;;;;;;5072272;28;20198;-29
2022/05/11 05:17:48;;;;;;;7.77;6.73;;;;;;;;;;5079751;28;20245;-27
2022/05/11 05:20:16;;;;;;;8.07;6.90;;;;;;;;;;5070617;28;20244;-33
2022/05/11 05:22:43;;;;;;;7.13;6.43;;;;;;;;;;5069645;28;20197;-34
2022/05/11 05:25:11;;;;;;;8.73;6.70;;;;;;;;;;5076397;28;20216;-34
2022/05/11 05:27:38;;;;;;;9.73;6.93;;;;;;;;;;5063512;28;20197;-34
2022/05/11 05:32:51;;;;;;;7.93;7.10;;;;;;;;;;5075938;28;20204;-37
2022/05/11 05:35:20;;;;;;;7.50;6.60;;;;;;;;;;5073902;28;20201;-33
2022/05/11 05:37:48;;;;;;;7.20;6.50;;;;;;;;;;5076862;28;20202;-33
2022/05/11 05:40:15;;;;;;;7.03;6.33;;;;;;;;;;5078322;28;20227;-34
2022/05/11 05:42:43;;;;;;;7.97;7.17;;;;;;;;;;5070794;28;20209;-38
2022/05/11 05:45:11;;;;;;;7.10;6.50;;;;;;;;;;5073322;28;20228;-34
2022/05/11 05:47:38;;;;;;;7.27;6.60;;;;;;;;;;5075845;28;20205;-38
2022/05/11 05:50:06;;;;;;;8.73;7.13;;;;;;;;;;5073568;28;20193;-32
2022/05/11 05:52:34;;;;;;;8.40;7.60;;;;;;;;;;5063632;28;20198;-35
2022/05/11 05:55:19;;;;;;;7.97;7.20;;;;;;;;;;5073998;28;20290;-32
2022/05/11 05:57:47;;;;;;;8.47;7.53;;;;;;;;;;5062605;28;20200;-36
2022/05/11 06:00:15;;;;;;;8.03;7.23;;;;;;;;;;5074222;28;20226;-37
2022/05/11 06:02:42;;;;;;;8.63;7.83;;;;;;;;;;5075707;28;20209;-34
2022/05/11 06:05:11;;;;;;;8.77;7.87;;;;;;;;;;5075893;28;20288;-34
2022/05/11 06:07:40;;;;;;;8.33;7.53;;;;;;;;;;5066138;28;20198;-33
2022/05/11 06:10:07;;;;;;;8.67;7.87;;;;;;;;;;5075598;28;20285;-32
2022/05/11 06:12:35;;;;;;;8.17;7.47;;;;;;;;;;5066121;28;20201;-30
2022/05/11 06:15:02;;;;;;;11.67;8.17;;;;;;;;;;5072992;28;20198;-33
2022/05/11 06:17:29;;;;;;;8.53;7.73;;;;;;;;;;5074404;28;20197;-30
2022/05/11 06:19:56;;;;;;;8.27;6.93;;;;;;;;;;5075349;28;20217;-32
2022/05/11 06:22:25;;;;;;;8.03;6.93;;;;;;;;;;5068441;28;20296;-33
2022/05/11 06:24:53;;;;;;;8.60;6.87;;;;;;;;;;5074119;28;20216;-36
2022/05/11 06:27:23;;;;;;;8.90;7.77;;;;;;;;;;5068795;28;20229;-33
2022/05/11 06:29:52;;;;;;;8.60;7.80;;;;;;;;;;5073797;28;20201;-33
2022/05/11 06:32:19;;;;;;;8.30;7.00;;;;;;;;;;5074891;28;20193;-37
2022/05/11 06:34:46;;;;;;;7.63;6.93;;;;;;;;;;5069409;28;20205;-34
2022/05/11 06:37:13;;;;;;;10.47;6.50;;;;;;;;;;5067485;28;20227;-32
2022/05/11 06:39:41;;;;;;;6.90;6.03;;;;;;;;;;5074934;28;20221;-34
2022/05/11 06:42:10;;;;;;;6.00;5.40;;;;;;;;;;5068819;28;20201;-36
2022/05/11 06:44:38;;;;;;;6.60;5.80;;;;;;;;;;5071692;28;20199;-35
2022/05/11 06:47:06;;;;;;;6.97;6.10;;;;;;;;;;5074601;28;20228;-35
2022/05/11 06:49:33;;;;;;;5.70;5.20;;;;;;;;;;5072984;28;20291;-36
2022/05/11 06:52:01;;;;;;;7.03;5.67;;;;;;;;;;5062545;28;20205;-37
2022/05/11 07:00:05;;;;;;;6.55;5.95;;;;;;;;;;5066527;28;20224;-36
2022/05/11 07:02:34;;;;;;;6.85;6.03;;;;;;;;;;5074317;28;20258;-33
2022/05/11 07:05:01;;;;;;;6.07;5.47;;;;;;;;;;5068638;28;20205;-34
2022/05/11 07:07:29;;;;;;;6.65;6.05;;;;;;;;;;5074495;28;20234;-35
2022/05/11 07:09:56;;;;;;;7.00;6.30;;;;;;;;;;5073682;28;20199;-31
2022/05/11 07:12:27;;;;;;;8.10;6.00;;;;;;;;;;5071127;28;20221;-32
2022/05/11 07:14:57;;;;;;;6.13;5.53;;;;;;;;;;5070247;28;20255;-36
2022/05/11 07:17:25;;;;;;;7.40;5.78;;;;;;;;;;5073804;28;20547;-31
2022/05/11 07:19:52;;;;;;;6.20;5.60;;;;;;;;;;5073997;28;20299;-33
2022/05/11 07:22:19;;;;;;;6.40;5.80;;;;;;;;;;5067195;28;20215;-35
2022/05/11 07:24:46;;;;;;;5.82;5.22;;;;;;;;;;5065279;28;20207;-36
2022/05/11 07:27:14;;;;;;;6.65;5.95;;;;;;;;;;5067007;28;20230;-35
2022/05/11 07:29:42;;;;;;;6.55;5.18;;;;;;;;;;5068011;28;20208;-35
2022/05/11 07:32:10;;;;;;;5.72;5.22;;;;;;;;;;5074013;28;20293;-34
2022/05/11 07:34:38;;;;;;;6.10;5.43;;;;;;;;;;5073805;28;20237;-33
2022/05/11 07:37:05;;;;;;;5.65;5.13;;;;;;;;;;5057014;28;20229;-33
2022/05/11 07:39:33;;;;;;;8.82;5.30;;;;;;;;;;5053675;28;20278;-29
2022/05/11 07:42:00;;;;;;;8.13;5.82;;;;;;;;;;5057966;28;20204;-32
2022/05/11 07:44:27;;;;;;;7.43;5.68;;;;;;;;;;5064852;28;20207;-35
2022/05/11 07:46:56;;;;;;;5.38;4.82;;;;;;;;;;5073394;28;20224;-30
2022/05/11 07:49:23;;;;;;;6.15;5.60;;;;;;;;;;5071938;28;20236;-34
2022/05/11 07:51:52;;;;;;;5.50;5.05;;;;;;;;;;5066899;28;20211;-34
2022/05/11 07:54:20;;;;;;;5.63;5.13;;;;;;;;;;5062109;28;20204;-35
2022/05/11 08:02:18;;;;;;;5.97;4.32;;;;;;;;;;5071114;28;20186;-34
2022/05/11 08:04:45;;;;;;;4.90;4.40;;;;;;;;;;5073132;28;20209;-36
2022/05/11 08:07:31;;;;;;;5.50;4.80;;;;;;;;;;5061510;28;20228;-34
2022/05/11 08:09:59;;;;;;;3.72;3.42;;;;;;;;;;5064799;28;20201;-37
2022/05/11 08:12:27;;;;;;;5.40;4.15;;;;;;;;;;5063919;28;20204;-36
2022/05/11 08:14:54;;;;;;;4.13;3.58;;;;;;;;;;5071143;28;20204;-33
2022/05/11 08:17:27;;;;;;;4.57;3.47;;;;;;;;;;5072845;28;20241;-34
2022/05/11 08:19:55;;;;;;;4.80;3.38;;;;;;;;;;5072955;28;20205;-33
2022/05/11 08:22:22;;;;;;;3.80;3.50;;;;;;;;;;5061996;28;20296;-36
2022/05/11 08:24:51;;;;;;;4.07;3.35;;;;;;;;;;5071941;28;20334;-34
2022/05/11 08:27:19;;;;;;;5.05;3.08;;;;;;;;;;5066477;28;20233;-33
2022/05/11 08:35:19;;;;;;;4.10;3.38;;;;;;;;;;5063425;28;20206;-34
2022/05/11 08:37:47;;;;;;;3.95;3.53;;;;;;;;;;5071797;28;20235;-32
2022/05/11 08:40:18;;;;;;;3.70;3.08;;;;;;;;;;5072301;28;20220;-33
2022/05/11 08:42:46;;;;;;;3.28;2.97;;;;;;;;;;5068011;28;20202;-37
2022/05/11 08:45:13;;;;;;;4.03;3.50;;;;;;;;;;5071356;28;20207;-36
2022/05/11 08:47:45;;;;;;;3.95;3.20;;;;;;;;;;5085141;28;20201;-36
2022/05/11 08:50:14;;;;;;;3.63;3.33;;;;;;;;;;5076115;28;20199;-33
2022/05/11 08:52:44;;;;;;;3.30;3.00;;;;;;;;;;5068795;28;20210;-38
2022/05/11 08:55:12;;;;;;;3.00;2.80;;;;;;;;;;5080656;28;20199;-34
2022/05/11 08:57:41;;;;;;;4.50;3.00;;;;;;;;;;5064015;28;20205;-31
2022/05/11 09:00:10;;;;;;;3.20;2.92;;;;;;;;;;5069950;28;20228;-33
2022/05/11 09:02:44;;;;;;;3.10;2.90;;;;;;;;;;5072653;28;20195;-32
2022/05/11 09:05:13;;;;;;;3.47;3.17;;;;;;;;;;5064501;28;20295;-34
2022/05/11 09:07:41;;;;;;;3.53;2.80;;;;;;;;;;5069920;28;20198;-35
2022/05/11 09:10:09;;;;;;;2.85;2.65;;;;;;;;;;5075320;28;20202;-36
2022/05/11 09:12:37;;;;;;;4.07;2.90;;;;;;;;;;5067099;28;20312;-33
2022/05/11 09:15:05;;;;;;;3.33;2.80;;;;;;;;;;5075135;28;20202;-37
2022/05/11 09:17:34;;;;;;;2.80;2.50;;;;;;;;;;5082504;28;20227;-35
2022/05/11 09:20:02;;;;;;;5.53;3.33;;;;;;;;;;5075495;28;20222;-31
2022/05/11 09:22:31;;;;;;;5.75;3.05;;;;;;;;;;5071621;28;20298;-37
2022/05/11 09:24:59;;;;;;;3.78;2.80;;;;;;;;;;5068492;28;20492;-34
2022/05/11 09:27:28;;;;;;;2.80;2.60;;;;;;;;;;5066482;28;20291;-36
2022/05/11 09:29:58;;;;;;;3.75;2.85;;;;;;;;;;5081074;28;20283;-30
2022/05/11 09:32:29;;;;;;;3.42;2.90;;;;;;;;;;5090811;28;20261;-38
2022/05/11 09:34:58;;;;;;;3.13;2.92;;;;;;;;;;5095758;28;20191;-36
2022/05/11 09:37:27;;;;;;;2.70;2.60;;;;;;;;;;5075856;28;20249;-34
2022/05/11 09:40:03;;;;;;;3.10;2.90;;;;;;;;;;5076323;28;20208;-38
2022/05/11 09:42:32;;;;;;;3.45;3.20;;;;;;;;;;5069739;28;20208;-33
2022/05/11 09:45:00;;;;;;;3.00;2.80;;;;;;;;;;5075776;28;20234;-33
2022/05/11 09:47:31;;;;;;;3.50;3.25;;;;;;;;;;5076248;28;20298;-34
2022/05/11 09:50:14;;;;;;;3.55;3.13;;;;;;;;;;5073641;28;20194;-31
2022/05/11 09:52:44;;;;;;;3.08;2.78;;;;;;;;;;5069790;28;20200;-38
2022/05/11 09:55:18;;;;;;;3.22;2.85;;;;;;;;;;5076095;28;20291;-39
2022/05/11 09:57:53;;;;;;;7.72;3.55;;;;;;;;;;5066073;28;20278;-36
2022/05/11 10:00:21;;;;;;;3.65;2.95;;;;;;;;;;5075305;28;20237;-39
2022/05/11 10:02:50;;;;;;;21.67;10.95;;;;;;;;;;5081407;28;20199;-34
2022/05/11 10:05:21;;;;;;;4.18;2.75;;;;;;;;;;5094121;28;20210;-32
2022/05/11 10:07:51;;;;;;;10.98;4.22;;;;;;;;;;5067322;28;20216;-31
2022/05/11 10:10:26;;;;;;;3.35;2.85;;;;;;;;;;5074810;28;20191;-33
2022/05/11 10:12:53;;;;;;;3.97;3.03;;;;;;;;;;5073798;28;20231;-40
2022/05/11 10:23:49;;;;;;;4.47;3.00;;;;;;;;;;5079560;28;20225;-32
2022/05/11 10:26:21;;;;;;;4.45;3.05;;;;;;;;;;5070093;28;20222;-35
2022/05/11 10:28:52;;;;;;;3.67;2.60;;;;;;;;;;5070295;28;20261;-33
2022/05/11 10:31:22;;;;;;;3.30;3.00;;;;;;;;;;5076953;28;20203;-35
2022/05/11 10:33:53;;;;;;;3.42;3.13;;;;;;;;;;5082782;28;20209;-29
2022/05/11 10:36:26;;;;;;;3.35;3.05;;;;;;;;;;5064796;28;20214;-35
2022/05/11 10:38:59;;;;;;;3.45;3.20;;;;;;;;;;5075527;28;20205;-36
2022/05/11 10:41:32;;;;;;;3.78;2.80;;;;;;;;;;5074592;28;20211;-33
2022/05/11 10:44:03;;;;;;;3.03;2.63;;;;;;;;;;5074388;28;20226;-35
2022/05/11 10:46:35;;;;;;;3.33;3.13;;;;;;;;;;5073462;28;20305;-33
2022/05/11 10:49:20;;;;;;;3.47;3.17;;;;;;;;;;5074049;28;20263;-31
2022/05/11 10:51:51;;;;;;;3.13;2.92;;;;;;;;;;5056742;28;20199;-33
2022/05/11 10:54:26;;;;;;;2.90;2.70;;;;;;;;;;5069004;28;20203;-33
2022/05/11 10:57:02;;;;;;;3.42;3.10;;;;;;;;;;5070490;28;20258;-36
2022/05/11 10:59:44;;;;;;;3.22;2.97;;;;;;;;;;5070992;28;20203;-31
2022/05/11 11:02:18;;;;;;;3.25;2.95;;;;;;;;;;5066525;28;20218;-35
2022/05/11 11:04:55;;;;;;;2.85;2.65;;;;;;;;;;5074873;28;20198;-35
2022/05/11 11:07:26;;;;;;;2.92;2.72;;;;;;;;;;5065870;28;20321;-32
2022/05/11 11:10:03;;;;;;;3.88;2.92;;;;;;;;;;5073452;28;20279;-34
2022/05/11 11:12:40;;;;;;;3.25;2.95;;;;;;;;;;5068646;28;20203;-34
2022/05/11 11:15:12;;;;;;;3.90;2.75;;;;;;;;;;5065549;28;20190;-34
2022/05/11 11:17:40;;;;;;;4.65;3.10;;;;;;;;;;5073340;28;20272;-34
2022/05/11 11:20:09;;;;;;;3.30;3.10;;;;;;;;;;5072672;28;20208;-38
2022/05/11 11:22:54;;;;;;;3.15;2.80;;;;;;;;;;5062813;28;20286;-37
2022/05/11 11:25:23;;;;;;;3.25;3.00;;;;;;;;;;5073205;28;20226;-34
2022/05/11 11:28:08;;;;;;;3.10;2.90;;;;;;;;;;5065300;28;20253;-32
2022/05/11 11:30:38;;;;;;;3.60;3.30;;;;;;;;;;5070025;28;20278;-32
2022/05/11 11:33:24;;;;;;;3.70;2.92;;;;;;;;;;5073731;28;20199;-30
2022/05/11 11:35:56;;;;;;;3.17;2.88;;;;;;;;;;5064382;28;20433;-36
2022/05/11 11:38:24;;;;;;;4.88;3.17;;;;;;;;;;5062711;28;20202;-33
2022/05/11 11:41:11;;;;;;;4.07;2.90;;;;;;;;;;5073277;28;20216;-37
2022/05/11 11:43:45;;;;;;;4.28;2.90;;;;;;;;;;5073771;28;20198;-34
2022/05/11 11:46:29;;;;;;;3.55;2.83;;;;;;;;;;5085157;28;20229;-33
2022/05/11 11:49:03;;;;;;;4.38;2.95;;;;;;;;;;5094884;28;20216;-34
2022/05/11 11:51:34;;;;;;;3.33;3.03;;;;;;;;;;5066480;28;20205;-36
2022/05/11 11:54:01;;;;;;;2.85;2.60;;;;;;;;;;5065992;28;20199;-33
2022/05/11 11:56:38;;;;;;;4.18;2.90;;;;;;;;;;5069255;28;20219;-32
2022/05/11 11:59:08;;;;;;;5.85;3.00;;;;;;;;;;5070824;28;20204;-29
2022/05/11 12:01:37;;;;;;;3.17;2.75;;;;;;;;;;5074600;28;20218;-35
2022/05/11 12:04:07;;;;;;;3.40;3.03;;;;;;;;;;5072900;28;20236;-31
2022/05/11 12:15:02;;;;;;;4.07;2.97;;;;;;;;;;5068683;28;20289;-32
2022/05/11 12:17:33;;;;;;;3.20;3.00;;;;;;;;;;5073362;28;20222;-29
2022/05/11 12:20:04;;;;;;;3.25;2.80;;;;;;;;;;5072707;28;20199;-32
2022/05/11 12:22:32;;;;;;;4.45;3.10;;;;;;;;;;5055144;28;20228;-39
2022/05/11 12:25:01;;;;;;;3.53;2.50;;;;;;;;;;5064191;28;20224;-37
2022/05/11 12:27:30;;;;;;;3.33;3.10;;;;;;;;;;5061814;28;20204;-35
2022/05/11 12:30:00;;;;;;;3.20;2.90;;;;;;;;;;5064566;28;20206;-32
2022/05/11 12:32:29;;;;;;;3.75;3.33;;;;;;;;;;5072746;28;20235;-33
2022/05/11 12:35:00;;;;;;;4.20;2.60;;;;;;;;;;5069456;28;20201;-35
2022/05/11 12:37:28;;;;;;;3.30;3.00;;;;;;;;;;5067651;28;20228;-32
2022/05/11 12:39:57;;;;;;;3.35;3.00;;;;;;;;;;5071896;28;20443;-32
2022/05/11 12:42:28;;;;;;;5.78;3.10;;;;;;;;;;5067917;28;20306;-35
2022/05/11 12:44:56;;;;;;;3.20;2.90;;;;;;;;;;5068397;28;20208;-29
2022/05/11 12:47:26;;;;;;;3.25;3.05;;;;;;;;;;5072197;28;20231;-37
2022/05/11 12:49:53;;;;;;;3.10;2.90;;;;;;;;;;5066716;28;20240;-33
2022/05/11 12:52:21;;;;;;;5.38;3.15;;;;;;;;;;5067073;28;20278;-33
2022/05/11 12:55:00;;;;;;;3.05;2.85;;;;;;;;;;5072128;28;20198;-35
2022/05/11 12:57:35;;;;;;;2.80;2.60;;;;;;;;;;5064245;28;20264;-35
2022/05/11 13:00:02;;;;;;;4.50;2.78;;;;;;;;;;5063609;28;20199;-37
2022/05/11 13:02:33;;;;;;;3.22;2.90;;;;;;;;;;5070802;28;20238;-36
2022/05/11 13:05:00;;;;;;;3.88;3.15;;;;;;;;;;5053681;28;20194;-34
2022/05/11 13:07:31;;;;;;;3.40;2.80;;;;;;;;;;5067313;28;20200;-37
2022/05/11 13:09:59;;;;;;;3.10;2.80;;;;;;;;;;5064510;28;20204;-32
2022/05/11 13:12:27;;;;;;;3.17;2.78;;;;;;;;;;5063037;28;20200;-31
2022/05/11 13:14:55;;;;;;;5.75;3.20;;;;;;;;;;5069994;28;20287;-30
2022/05/11 13:17:25;;;;;;;3.38;2.63;;;;;;;;;;5075479;28;20219;-38
2022/05/11 13:19:59;;;;;;;12.57;3.00;;;;;;;;;;5071805;28;20226;-30
2022/05/11 13:22:28;;;;;;;4.40;3.15;;;;;;;;;;5070089;28;20241;-35
2022/05/11 13:24:57;;;;;;;6.28;3.22;;;;;;;;;;5074382;28;20265;-35
2022/05/11 13:27:43;;;;;;;6.90;3.50;;;;;;;;;;5072197;28;20280;-32
2022/05/11 13:30:16;;;;;;;2.90;2.58;;;;;;;;;;5072443;28;20208;-32
2022/05/11 13:32:45;;;;;;;5.57;2.72;;;;;;;;;;5076396;28;20202;-34
2022/05/11 13:35:26;;;;;;;4.93;2.63;;;;;;;;;;5067864;28;20312;-32
2022/05/11 13:38:01;;;;;;;3.25;2.95;;;;;;;;;;5073604;28;20287;-38
2022/05/11 13:40:33;;;;;;;3.42;2.60;;;;;;;;;;5075790;28;20199;-31
2022/05/11 13:43:01;;;;;;;6.47;3.03;;;;;;;;;;5066438;28;20219;-38
2022/05/11 13:45:28;;;;;;;3.20;2.90;;;;;;;;;;5069745;28;20250;-35
2022/05/11 13:48:14;;;;;;;4.07;2.63;;;;;;;;;;5072469;28;20212;-35
2022/05/11 13:50:44;;;;;;;2.80;2.60;;;;;;;;;;5075945;28;20259;-40
2022/05/11 13:53:21;;;;;;;3.20;2.60;;;;;;;;;;5076042;28;20228;-35
2022/05/11 13:56:01;;;;;;;3.13;2.50;;;;;;;;;;5070954;28;20222;-32
2022/05/11 13:58:32;;;;;;;3.88;2.80;;;;;;;;;;5067619;28;20200;-32
2022/05/11 14:01:00;;;;;;;4.30;2.70;;;;;;;;;;5067309;28;20197;-33
2022/05/11 14:03:31;;;;;;;3.63;2.50;;;;;;;;;;5066895;28;20232;-34
2022/05/11 14:06:00;;;;;;;2.75;2.60;;;;;;;;;;5058245;28;20223;-34
2022/05/11 14:08:27;;;;;;;4.05;2.60;;;;;;;;;;5072249;28;20204;-34
2022/05/11 14:10:55;;;;;;;2.40;2.20;;;;;;;;;;5074205;28;20211;-37
2022/05/11 14:13:22;;;;;;;3.20;3.00;;;;;;;;;;5064823;28;20220;-35
2022/05/11 14:15:50;;;;;;;5.50;2.70;;;;;;;;;;5074828;28;20303;-33
2022/05/11 14:18:20;;;;;;;2.88;2.60;;;;;;;;;;5061515;28;20258;-31
2022/05/11 14:20:47;;;;;;;4.60;2.90;;;;;;;;;;5054578;28;20206;-34
2022/05/11 14:23:16;;;;;;;3.45;2.78;;;;;;;;;;5060636;28;20271;-35
2022/05/11 14:25:43;;;;;;;3.03;2.80;;;;;;;;;;5072329;28;20222;-34
2022/05/11 14:28:11;;;;;;;2.85;2.35;;;;;;;;;;5068499;28;20213;-37
2022/05/11 14:30:38;;;;;;;5.65;2.90;;;;;;;;;;5071627;28;20208;-33
2022/05/11 14:33:06;;;;;;;5.63;2.40;;;;;;;;;;5053698;28;20206;-37
2022/05/11 14:35:33;;;;;;;2.45;2.10;;;;;;;;;;5061956;28;20224;-33
2022/05/11 14:38:00;;;;;;;2.53;2.33;;;;;;;;;;5074566;28;20196;-30
2022/05/11 14:40:30;;;;;;;3.72;2.10;;;;;;;;;;5074852;28;20432;-34
2022/05/11 14:42:57;;;;;;;2.60;2.40;;;;;;;;;;5068988;28;20219;-36
2022/05/11 14:45:24;;;;;;;3.13;2.42;;;;;;;;;;5070938;28;20289;-32
2022/05/11 14:47:57;;;;;;;2.95;2.22;;;;;;;;;;5074674;28;20208;-35
2022/05/11 14:50:25;;;;;;;2.50;2.22;;;;;;;;;;5069556;28;20197;-40
2022/05/11 14:52:55;;;;;;;2.55;2.35;;;;;;;;;;5068474;28;20208;-35
2022/05/11 14:55:23;;;;;;;5.07;2.88;;;;;;;;;;5074451;28;20250;-35
2022/05/11 15:03:31;;;;;;;2.58;2.08;;;;;;;;;;5026441;28;20271;-33
2022/05/11 15:06:01;;;;;;;2.10;2.00;;;;;;;;;;5065439;28;20223;-31
2022/05/11 15:08:29;;;;;;;3.00;2.17;;;;;;;;;;5070701;28;20201;-29
2022/05/11 15:13:39;;;;;;;4.90;2.10;;;;;;;;;;5066305;28;20769;-37
2022/05/11 15:16:06;;;;;;;2.42;1.98;;;;;;;;;;5074530;28;20216;-37
2022/05/11 15:18:34;;;;;;;6.00;2.00;;;;;;;;;;5074745;28;20206;-32
2022/05/11 15:21:01;;;;;;;2.33;1.85;;;;;;;;;;5069004;28;20343;-33
2022/05/11 15:23:28;;;;;;;3.15;2.15;;;;;;;;;;5067026;28;20224;-35
2022/05/11 15:25:55;;;;;;;3.05;2.10;;;;;;;;;;5073223;28;20210;-36
2022/05/11 15:28:22;;;;;;;4.78;1.92;;;;;;;;;;5061483;28;20268;-33
2022/05/11 15:30:51;;;;;;;3.60;1.67;;;;;;;;;;5072449;28;20230;-33
2022/05/11 15:38:22;;;;;;;2.22;2.05;;;;;;;;;;5001715;28;20221;-29
2022/05/11 15:40:51;;;;;;;2.17;1.85;;;;;;;;;;5008657;28;20204;-28
2022/05/11 15:43:19;;;;;;;3.00;1.80;;;;;;;;;;5011544;28;20365;-30
2022/05/11 15:45:46;;;;;;;5.05;2.00;;;;;;;;;;5003623;28;20261;-27
2022/05/11 15:48:14;;;;;;;2.72;1.83;;;;;;;;;;5010710;28;20206;-32
2022/05/11 15:50:43;;;;;;;3.70;2.20;;;;;;;;;;4997363;28;20206;-31
2022/05/11 15:53:15;;;;;;;2.08;1.98;;;;;;;;;;5002318;28;20226;-31
2022/05/11 15:55:42;;;;;;;2.85;1.60;;;;;;;;;;5008902;28;20226;-28